sensor_id;sensor_type;location;lat;lon;timestamp;P1;durP1;ratioP1;P2;durP2;ratioP2
15818;SDS011;8010;53.986;12.106;2023-02-15T00:01:39;29.90;;;13.30;;
15818;SDS011;8010;53.986;12.106;2023-02-15T00:04:06;27.63;;;13.77;;
15818;SDS011;8010;53.986;12.106;2023-02-15T00:06:33;30.83;;;13.57;;
15818;SDS011;8010;53.986;12.106;2023-02-15T00:08:59;30.50;;;14.13;;
15818;SDS011;8010;53.986;12.106;2023-02-15T00:11:24;25.87;;;13.00;;
15818;SDS011;8010;53.986;12.106;2023-02-15T00:14:09;29.37;;;12.90;;
15818;SDS011;8010;53.986;12.106;2023-02-15T00:16:37;28.97;;;12.63;;
15818;SDS011;8010;53.986;12.106;2023-02-15T00:19:04;24.37;;;12.70;;
15818;SDS011;8010;53.986;12.106;2023-02-15T00:21:30;25.87;;;12.87;;
15818;SDS011;8010;53.986;12.106;2023-02-15T00:23:57;26.97;;;12.43;;
15818;SDS011;8010;53.986;12.106;2023-02-15T00:26:25;29.20;;;13.27;;
15818;SDS011;8010;53.986;12.106;2023-02-15T00:28:51;27.47;;;13.07;;
15818;SDS011;8010;53.986;12.106;2023-02-15T00:31:16;28.50;;;14.00;;
15818;SDS011;8010;53.986;12.106;2023-02-15T00:33:42;31.80;;;13.97;;
15818;SDS011;8010;53.986;12.106;2023-02-15T00:36:08;29.67;;;14.13;;
15818;SDS011;8010;53.986;12.106;2023-02-15T00:38:35;30.73;;;14.37;;
15818;SDS011;8010;53.986;12.106;2023-02-15T00:41:02;34.50;;;13.43;;
15818;SDS011;8010;53.986;12.106;2023-02-15T00:43:30;29.57;;;13.63;;
15818;SDS011;8010;53.986;12.106;2023-02-15T00:45:56;30.30;;;13.10;;
15818;SDS011;8010;53.986;12.106;2023-02-15T00:48:22;28.17;;;13.40;;
15818;SDS011;8010;53.986;12.106;2023-02-15T00:50:55;25.77;;;12.90;;
15818;SDS011;8010;53.986;12.106;2023-02-15T00:53:22;25.57;;;12.87;;
15818;SDS011;8010;53.986;12.106;2023-02-15T00:55:48;29.30;;;12.80;;
15818;SDS011;8010;53.986;12.106;2023-02-15T00:58:14;26.67;;;12.40;;
15818;SDS011;8010;53.986;12.106;2023-02-15T01:00:41;34.10;;;13.73;;
15818;SDS011;8010;53.986;12.106;2023-02-15T01:03:08;31.93;;;13.60;;
15818;SDS011;8010;53.986;12.106;2023-02-15T01:05:34;31.20;;;13.67;;
15818;SDS011;8010;53.986;12.106;2023-02-15T01:08:00;28.27;;;12.63;;
15818;SDS011;8010;53.986;12.106;2023-02-15T01:10:26;31.37;;;14.33;;
15818;SDS011;8010;53.986;12.106;2023-02-15T01:12:52;30.50;;;12.77;;
15818;SDS011;8010;53.986;12.106;2023-02-15T01:15:19;27.30;;;13.80;;
15818;SDS011;8010;53.986;12.106;2023-02-15T01:17:45;29.47;;;12.97;;
15818;SDS011;8010;53.986;12.106;2023-02-15T01:20:16;29.23;;;13.30;;
15818;SDS011;8010;53.986;12.106;2023-02-15T01:22:42;29.60;;;13.30;;
15818;SDS011;8010;53.986;12.106;2023-02-15T01:25:07;25.73;;;12.13;;
15818;SDS011;8010;53.986;12.106;2023-02-15T01:27:33;27.43;;;12.07;;
15818;SDS011;8010;53.986;12.106;2023-02-15T01:29:58;27.20;;;11.77;;
15818;SDS011;8010;53.986;12.106;2023-02-15T01:32:24;30.00;;;13.10;;
15818;SDS011;8010;53.986;12.106;2023-02-15T01:34:51;31.50;;;13.30;;
15818;SDS011;8010;53.986;12.106;2023-02-15T01:37:17;28.90;;;12.47;;
15818;SDS011;8010;53.986;12.106;2023-02-15T01:39:43;27.47;;;12.97;;
15818;SDS011;8010;53.986;12.106;2023-02-15T01:42:11;26.00;;;11.50;;
15818;SDS011;8010;53.986;12.106;2023-02-15T01:47:18;26.70;;;12.07;;
15818;SDS011;8010;53.986;12.106;2023-02-15T01:50:02;28.37;;;12.50;;
15818;SDS011;8010;53.986;12.106;2023-02-15T01:52:54;28.27;;;12.73;;
15818;SDS011;8010;53.986;12.106;2023-02-15T01:55:24;30.17;;;13.43;;
15818;SDS011;8010;53.986;12.106;2023-02-15T01:57:51;24.43;;;12.13;;
15818;SDS011;8010;53.986;12.106;2023-02-15T02:00:17;26.00;;;12.50;;
15818;SDS011;8010;53.986;12.106;2023-02-15T02:02:43;26.43;;;12.33;;
15818;SDS011;8010;53.986;12.106;2023-02-15T02:05:12;25.57;;;12.00;;
15818;SDS011;8010;53.986;12.106;2023-02-15T02:07:38;30.43;;;13.20;;
15818;SDS011;8010;53.986;12.106;2023-02-15T02:10:08;30.20;;;13.20;;
15818;SDS011;8010;53.986;12.106;2023-02-15T02:12:37;30.00;;;13.40;;
15818;SDS011;8010;53.986;12.106;2023-02-15T02:15:05;29.10;;;13.30;;
15818;SDS011;8010;53.986;12.106;2023-02-15T02:20:26;27.57;;;13.07;;
15818;SDS011;8010;53.986;12.106;2023-02-15T02:34:16;28.13;;;12.83;;
15818;SDS011;8010;53.986;12.106;2023-02-15T02:37:09;35.30;;;14.97;;
15818;SDS011;8010;53.986;12.106;2023-02-15T02:39:58;31.57;;;13.93;;
15818;SDS011;8010;53.986;12.106;2023-02-15T02:42:34;30.13;;;12.83;;
15818;SDS011;8010;53.986;12.106;2023-02-15T02:45:08;28.37;;;13.33;;
15818;SDS011;8010;53.986;12.106;2023-02-15T02:47:45;29.97;;;13.73;;
15818;SDS011;8010;53.986;12.106;2023-02-15T02:50:22;28.03;;;13.40;;
15818;SDS011;8010;53.986;12.106;2023-02-15T02:52:52;26.00;;;12.67;;
15818;SDS011;8010;53.986;12.106;2023-02-15T03:00:53;28.77;;;13.83;;
15818;SDS011;8010;53.986;12.106;2023-02-15T03:03:32;27.00;;;13.70;;
15818;SDS011;8010;53.986;12.106;2023-02-15T03:06:04;32.57;;;13.43;;
15818;SDS011;8010;53.986;12.106;2023-02-15T03:08:40;35.00;;;14.87;;
15818;SDS011;8010;53.986;12.106;2023-02-15T03:11:10;24.93;;;12.80;;
15818;SDS011;8010;53.986;12.106;2023-02-15T03:13:36;27.53;;;13.30;;
15818;SDS011;8010;53.986;12.106;2023-02-15T03:16:02;26.37;;;12.97;;
15818;SDS011;8010;53.986;12.106;2023-02-15T03:18:51;30.70;;;12.93;;
15818;SDS011;8010;53.986;12.106;2023-02-15T03:21:41;27.07;;;12.97;;
15818;SDS011;8010;53.986;12.106;2023-02-15T03:24:22;25.90;;;12.43;;
15818;SDS011;8010;53.986;12.106;2023-02-15T03:26:52;27.20;;;12.47;;
15818;SDS011;8010;53.986;12.106;2023-02-15T03:29:20;30.90;;;14.13;;
15818;SDS011;8010;53.986;12.106;2023-02-15T03:31:50;28.57;;;14.03;;
15818;SDS011;8010;53.986;12.106;2023-02-15T03:34:20;27.63;;;12.77;;
15818;SDS011;8010;53.986;12.106;2023-02-15T03:37:00;31.63;;;13.83;;
15818;SDS011;8010;53.986;12.106;2023-02-15T03:42:10;26.30;;;12.73;;
15818;SDS011;8010;53.986;12.106;2023-02-15T03:47:31;28.43;;;13.07;;
15818;SDS011;8010;53.986;12.106;2023-02-15T03:50:05;28.30;;;12.73;;
15818;SDS011;8010;53.986;12.106;2023-02-15T03:52:57;28.67;;;13.80;;
15818;SDS011;8010;53.986;12.106;2023-02-15T03:55:25;31.47;;;13.07;;
15818;SDS011;8010;53.986;12.106;2023-02-15T03:57:51;30.90;;;12.93;;
15818;SDS011;8010;53.986;12.106;2023-02-15T04:00:36;25.03;;;12.27;;
15818;SDS011;8010;53.986;12.106;2023-02-15T04:05:58;28.53;;;13.83;;
15818;SDS011;8010;53.986;12.106;2023-02-15T04:08:26;37.07;;;14.47;;
15818;SDS011;8010;53.986;12.106;2023-02-15T04:11:11;31.00;;;14.80;;
15818;SDS011;8010;53.986;12.106;2023-02-15T04:13:37;30.67;;;13.87;;
15818;SDS011;8010;53.986;12.106;2023-02-15T04:16:02;31.20;;;14.00;;
15818;SDS011;8010;53.986;12.106;2023-02-15T04:18:29;32.77;;;14.60;;
15818;SDS011;8010;53.986;12.106;2023-02-15T04:21:13;31.93;;;14.27;;
15818;SDS011;8010;53.986;12.106;2023-02-15T04:23:57;29.73;;;14.07;;
15818;SDS011;8010;53.986;12.106;2023-02-15T04:26:41;27.30;;;13.23;;
15818;SDS011;8010;53.986;12.106;2023-02-15T04:29:07;28.57;;;13.73;;
15818;SDS011;8010;53.986;12.106;2023-02-15T04:31:32;33.23;;;14.53;;
15818;SDS011;8010;53.986;12.106;2023-02-15T04:33:58;30.63;;;13.80;;
15818;SDS011;8010;53.986;12.106;2023-02-15T04:36:23;31.73;;;12.80;;
15818;SDS011;8010;53.986;12.106;2023-02-15T04:38:49;30.33;;;13.00;;
15818;SDS011;8010;53.986;12.106;2023-02-15T04:41:14;27.40;;;12.50;;
15818;SDS011;8010;53.986;12.106;2023-02-15T04:43:40;31.17;;;13.20;;
15818;SDS011;8010;53.986;12.106;2023-02-15T04:46:05;29.50;;;13.60;;
15818;SDS011;8010;53.986;12.106;2023-02-15T04:48:31;26.77;;;13.00;;
15818;SDS011;8010;53.986;12.106;2023-02-15T04:50:56;30.83;;;13.73;;
15818;SDS011;8010;53.986;12.106;2023-02-15T04:53:22;30.33;;;13.67;;
15818;SDS011;8010;53.986;12.106;2023-02-15T04:55:47;27.37;;;13.40;;
15818;SDS011;8010;53.986;12.106;2023-02-15T04:58:13;27.90;;;12.67;;
15818;SDS011;8010;53.986;12.106;2023-02-15T05:00:38;31.53;;;13.63;;
15818;SDS011;8010;53.986;12.106;2023-02-15T05:03:04;26.33;;;12.67;;
15818;SDS011;8010;53.986;12.106;2023-02-15T05:05:30;30.60;;;13.37;;
15818;SDS011;8010;53.986;12.106;2023-02-15T05:07:55;31.87;;;14.27;;
15818;SDS011;8010;53.986;12.106;2023-02-15T05:10:21;30.60;;;13.27;;
15818;SDS011;8010;53.986;12.106;2023-02-15T05:12:47;31.63;;;13.80;;
15818;SDS011;8010;53.986;12.106;2023-02-15T05:15:12;27.33;;;14.03;;
15818;SDS011;8010;53.986;12.106;2023-02-15T05:17:38;26.10;;;12.60;;
15818;SDS011;8010;53.986;12.106;2023-02-15T05:20:04;30.37;;;13.67;;
15818;SDS011;8010;53.986;12.106;2023-02-15T05:22:30;31.37;;;13.13;;
15818;SDS011;8010;53.986;12.106;2023-02-15T05:24:55;30.20;;;12.80;;
15818;SDS011;8010;53.986;12.106;2023-02-15T05:27:39;25.20;;;12.40;;
15818;SDS011;8010;53.986;12.106;2023-02-15T05:30:24;28.53;;;13.13;;
15818;SDS011;8010;53.986;12.106;2023-02-15T05:32:49;28.00;;;12.33;;
15818;SDS011;8010;53.986;12.106;2023-02-15T05:35:15;28.70;;;12.53;;
15818;SDS011;8010;53.986;12.106;2023-02-15T05:37:41;28.03;;;12.93;;
15818;SDS011;8010;53.986;12.106;2023-02-15T05:40:07;29.43;;;13.73;;
15818;SDS011;8010;53.986;12.106;2023-02-15T05:42:33;32.83;;;13.93;;
15818;SDS011;8010;53.986;12.106;2023-02-15T05:44:58;30.43;;;13.27;;
15818;SDS011;8010;53.986;12.106;2023-02-15T05:47:24;30.23;;;13.80;;
15818;SDS011;8010;53.986;12.106;2023-02-15T05:49:49;28.03;;;13.63;;
15818;SDS011;8010;53.986;12.106;2023-02-15T05:52:15;24.47;;;12.80;;
15818;SDS011;8010;53.986;12.106;2023-02-15T05:54:40;27.43;;;12.77;;
15818;SDS011;8010;53.986;12.106;2023-02-15T05:57:06;31.20;;;13.77;;
15818;SDS011;8010;53.986;12.106;2023-02-15T05:59:32;29.73;;;13.07;;
15818;SDS011;8010;53.986;12.106;2023-02-15T06:01:57;31.60;;;14.00;;
15818;SDS011;8010;53.986;12.106;2023-02-15T06:04:23;31.80;;;13.00;;
15818;SDS011;8010;53.986;12.106;2023-02-15T06:06:48;30.33;;;13.30;;
15818;SDS011;8010;53.986;12.106;2023-02-15T06:09:14;31.73;;;14.47;;
15818;SDS011;8010;53.986;12.106;2023-02-15T06:11:40;31.10;;;13.73;;
15818;SDS011;8010;53.986;12.106;2023-02-15T06:14:05;31.87;;;13.90;;
15818;SDS011;8010;53.986;12.106;2023-02-15T06:16:31;26.53;;;12.20;;
15818;SDS011;8010;53.986;12.106;2023-02-15T06:18:56;24.30;;;11.87;;
15818;SDS011;8010;53.986;12.106;2023-02-15T06:21:24;34.30;;;13.40;;
15818;SDS011;8010;53.986;12.106;2023-02-15T06:23:49;33.80;;;13.00;;
15818;SDS011;8010;53.986;12.106;2023-02-15T06:26:15;29.80;;;15.30;;
15818;SDS011;8010;53.986;12.106;2023-02-15T06:28:40;32.93;;;14.90;;
15818;SDS011;8010;53.986;12.106;2023-02-15T06:31:06;29.80;;;16.03;;
15818;SDS011;8010;53.986;12.106;2023-02-15T06:33:31;45.17;;;25.93;;
15818;SDS011;8010;53.986;12.106;2023-02-15T06:35:58;36.83;;;18.37;;
15818;SDS011;8010;53.986;12.106;2023-02-15T06:38:24;31.27;;;15.40;;
15818;SDS011;8010;53.986;12.106;2023-02-15T06:40:50;26.90;;;14.57;;
15818;SDS011;8010;53.986;12.106;2023-02-15T06:43:15;29.27;;;14.23;;
15818;SDS011;8010;53.986;12.106;2023-02-15T06:45:41;33.83;;;14.67;;
15818;SDS011;8010;53.986;12.106;2023-02-15T06:48:07;34.97;;;14.70;;
15818;SDS011;8010;53.986;12.106;2023-02-15T06:50:33;36.33;;;16.00;;
15818;SDS011;8010;53.986;12.106;2023-02-15T06:52:59;37.80;;;19.83;;
15818;SDS011;8010;53.986;12.106;2023-02-15T06:55:24;50.97;;;28.93;;
15818;SDS011;8010;53.986;12.106;2023-02-15T06:57:51;45.37;;;25.43;;
15818;SDS011;8010;53.986;12.106;2023-02-15T07:00:17;37.70;;;19.70;;
15818;SDS011;8010;53.986;12.106;2023-02-15T07:02:43;30.83;;;19.00;;
15818;SDS011;8010;53.986;12.106;2023-02-15T07:05:09;39.83;;;17.47;;
15818;SDS011;8010;53.986;12.106;2023-02-15T07:07:35;35.20;;;14.87;;
15818;SDS011;8010;53.986;12.106;2023-02-15T07:10:01;35.33;;;14.80;;
15818;SDS011;8010;53.986;12.106;2023-02-15T07:12:27;30.70;;;13.73;;
15818;SDS011;8010;53.986;12.106;2023-02-15T07:15:09;28.90;;;13.27;;
15818;SDS011;8010;53.986;12.106;2023-02-15T07:17:36;30.43;;;13.27;;
15818;SDS011;8010;53.986;12.106;2023-02-15T07:20:06;31.20;;;13.20;;
15818;SDS011;8010;53.986;12.106;2023-02-15T07:22:34;28.33;;;12.83;;
15818;SDS011;8010;53.986;12.106;2023-02-15T07:25:01;26.60;;;12.80;;
15818;SDS011;8010;53.986;12.106;2023-02-15T07:27:31;32.47;;;13.77;;
15818;SDS011;8010;53.986;12.106;2023-02-15T07:29:57;31.90;;;13.27;;
15818;SDS011;8010;53.986;12.106;2023-02-15T07:32:23;29.67;;;13.27;;
15818;SDS011;8010;53.986;12.106;2023-02-15T07:34:48;34.97;;;14.43;;
15818;SDS011;8010;53.986;12.106;2023-02-15T07:37:14;31.53;;;13.80;;
15818;SDS011;8010;53.986;12.106;2023-02-15T07:39:39;27.53;;;13.63;;
15818;SDS011;8010;53.986;12.106;2023-02-15T07:42:05;30.50;;;14.33;;
15818;SDS011;8010;53.986;12.106;2023-02-15T07:44:30;33.60;;;13.67;;
15818;SDS011;8010;53.986;12.106;2023-02-15T07:46:56;30.93;;;13.07;;
15818;SDS011;8010;53.986;12.106;2023-02-15T07:49:21;30.27;;;13.23;;
15818;SDS011;8010;53.986;12.106;2023-02-15T07:51:48;30.03;;;12.90;;
15818;SDS011;8010;53.986;12.106;2023-02-15T07:54:13;33.70;;;14.03;;
15818;SDS011;8010;53.986;12.106;2023-02-15T07:56:39;28.80;;;12.70;;
15818;SDS011;8010;53.986;12.106;2023-02-15T07:59:04;30.33;;;13.97;;
15818;SDS011;8010;53.986;12.106;2023-02-15T08:01:35;34.10;;;13.87;;
15818;SDS011;8010;53.986;12.106;2023-02-15T08:04:02;27.50;;;13.17;;
15818;SDS011;8010;53.986;12.106;2023-02-15T08:06:30;31.90;;;13.73;;
15818;SDS011;8010;53.986;12.106;2023-02-15T08:08:56;35.77;;;14.83;;
15818;SDS011;8010;53.986;12.106;2023-02-15T08:11:23;34.77;;;13.67;;
15818;SDS011;8010;53.986;12.106;2023-02-15T08:14:11;30.23;;;14.03;;
15818;SDS011;8010;53.986;12.106;2023-02-15T08:19:21;30.77;;;13.93;;
15818;SDS011;8010;53.986;12.106;2023-02-15T08:21:54;36.73;;;13.97;;
15818;SDS011;8010;53.986;12.106;2023-02-15T08:24:22;31.50;;;12.77;;
15818;SDS011;8010;53.986;12.106;2023-02-15T08:26:49;25.43;;;13.27;;
15818;SDS011;8010;53.986;12.106;2023-02-15T08:29:16;30.77;;;13.13;;
15818;SDS011;8010;53.986;12.106;2023-02-15T08:31:44;31.67;;;13.20;;
15818;SDS011;8010;53.986;12.106;2023-02-15T08:34:12;27.23;;;13.07;;
15818;SDS011;8010;53.986;12.106;2023-02-15T08:36:39;33.87;;;13.07;;
15818;SDS011;8010;53.986;12.106;2023-02-15T08:39:06;29.03;;;14.40;;
15818;SDS011;8010;53.986;12.106;2023-02-15T08:41:35;43.40;;;14.50;;
15818;SDS011;8010;53.986;12.106;2023-02-15T08:44:04;34.37;;;12.43;;
15818;SDS011;8010;53.986;12.106;2023-02-15T08:46:32;29.43;;;12.97;;
15818;SDS011;8010;53.986;12.106;2023-02-15T08:49:00;28.60;;;13.90;;
15818;SDS011;8010;53.986;12.106;2023-02-15T08:51:26;30.13;;;13.53;;
15818;SDS011;8010;53.986;12.106;2023-02-15T08:53:56;27.57;;;13.33;;
15818;SDS011;8010;53.986;12.106;2023-02-15T08:56:24;27.60;;;13.73;;
15818;SDS011;8010;53.986;12.106;2023-02-15T08:58:52;35.20;;;14.07;;
15818;SDS011;8010;53.986;12.106;2023-02-15T09:01:20;31.00;;;13.97;;
15818;SDS011;8010;53.986;12.106;2023-02-15T09:03:48;30.63;;;14.30;;
15818;SDS011;8010;53.986;12.106;2023-02-15T09:06:22;31.03;;;14.33;;
15818;SDS011;8010;53.986;12.106;2023-02-15T09:08:48;30.17;;;13.87;;
15818;SDS011;8010;53.986;12.106;2023-02-15T09:11:18;36.83;;;15.13;;
15818;SDS011;8010;53.986;12.106;2023-02-15T09:13:58;30.27;;;14.97;;
15818;SDS011;8010;53.986;12.106;2023-02-15T09:16:26;32.37;;;14.03;;
15818;SDS011;8010;53.986;12.106;2023-02-15T09:18:54;34.47;;;14.07;;
15818;SDS011;8010;53.986;12.106;2023-02-15T09:21:22;40.40;;;16.00;;
15818;SDS011;8010;53.986;12.106;2023-02-15T09:23:50;33.97;;;15.73;;
15818;SDS011;8010;53.986;12.106;2023-02-15T09:26:20;38.87;;;15.73;;
15818;SDS011;8010;53.986;12.106;2023-02-15T09:28:47;36.57;;;15.10;;
15818;SDS011;8010;53.986;12.106;2023-02-15T09:31:20;33.27;;;14.97;;
15818;SDS011;8010;53.986;12.106;2023-02-15T09:33:47;37.80;;;15.97;;
15818;SDS011;8010;53.986;12.106;2023-02-15T09:36:15;36.97;;;16.13;;
15818;SDS011;8010;53.986;12.106;2023-02-15T09:38:42;33.93;;;15.47;;
15818;SDS011;8010;53.986;12.106;2023-02-15T09:41:27;35.70;;;15.33;;
15818;SDS011;8010;53.986;12.106;2023-02-15T09:44:27;35.10;;;14.57;;
15818;SDS011;8010;53.986;12.106;2023-02-15T09:52:08;39.57;;;17.67;;
15818;SDS011;8010;53.986;12.106;2023-02-15T09:54:58;32.30;;;14.27;;
15818;SDS011;8010;53.986;12.106;2023-02-15T09:57:53;32.77;;;13.97;;
15818;SDS011;8010;53.986;12.106;2023-02-15T10:03:15;34.47;;;14.17;;
15818;SDS011;8010;53.986;12.106;2023-02-15T10:11:08;32.80;;;14.57;;
15818;SDS011;8010;53.986;12.106;2023-02-15T10:23:10;34.47;;;14.80;;
15818;SDS011;8010;53.986;12.106;2023-02-15T10:31:48;46.40;;;19.20;;
15818;SDS011;8010;53.986;12.106;2023-02-15T10:34:20;42.97;;;17.60;;
15818;SDS011;8010;53.986;12.106;2023-02-15T10:45:03;49.60;;;16.43;;
15818;SDS011;8010;53.986;12.106;2023-02-15T10:47:55;48.80;;;19.40;;
15818;SDS011;8010;53.986;12.106;2023-02-15T10:56:24;48.80;;;18.93;;
15818;SDS011;8010;53.986;12.106;2023-02-15T10:59:21;44.53;;;18.63;;
15818;SDS011;8010;53.986;12.106;2023-02-15T11:02:01;46.90;;;17.80;;
15818;SDS011;8010;53.986;12.106;2023-02-15T11:07:35;44.33;;;18.43;;
15818;SDS011;8010;53.986;12.106;2023-02-15T11:12:58;44.67;;;18.27;;
15818;SDS011;8010;53.986;12.106;2023-02-15T11:18:11;47.87;;;18.67;;
15818;SDS011;8010;53.986;12.106;2023-02-15T11:20:45;46.03;;;19.37;;
15818;SDS011;8010;53.986;12.106;2023-02-15T11:23:20;47.57;;;18.33;;
15818;SDS011;8010;53.986;12.106;2023-02-15T11:25:54;53.60;;;20.67;;
15818;SDS011;8010;53.986;12.106;2023-02-15T11:28:24;50.23;;;18.40;;
15818;SDS011;8010;53.986;12.106;2023-02-15T11:31:12;54.70;;;20.77;;
15818;SDS011;8010;53.986;12.106;2023-02-15T11:33:43;51.20;;;19.80;;
15818;SDS011;8010;53.986;12.106;2023-02-15T11:36:32;50.57;;;19.03;;
15818;SDS011;8010;53.986;12.106;2023-02-15T11:39:03;57.50;;;20.87;;
15818;SDS011;8010;53.986;12.106;2023-02-15T11:41:35;49.70;;;20.53;;
15818;SDS011;8010;53.986;12.106;2023-02-15T11:46:37;59.90;;;21.80;;
15818;SDS011;8010;53.986;12.106;2023-02-15T11:49:19;50.83;;;21.53;;
15818;SDS011;8010;53.986;12.106;2023-02-15T11:51:55;52.30;;;20.87;;
15818;SDS011;8010;53.986;12.106;2023-02-15T11:54:32;60.50;;;22.27;;
15818;SDS011;8010;53.986;12.106;2023-02-15T11:57:05;47.97;;;20.20;;
15818;SDS011;8010;53.986;12.106;2023-02-15T11:59:44;58.33;;;20.07;;
15818;SDS011;8010;53.986;12.106;2023-02-15T12:02:18;57.70;;;22.50;;
15818;SDS011;8010;53.986;12.106;2023-02-15T12:04:49;51.07;;;19.63;;
15818;SDS011;8010;53.986;12.106;2023-02-15T12:07:27;57.23;;;22.80;;
15818;SDS011;8010;53.986;12.106;2023-02-15T12:12:37;53.07;;;21.57;;
15818;SDS011;8010;53.986;12.106;2023-02-15T12:15:07;62.73;;;20.90;;
15818;SDS011;8010;53.986;12.106;2023-02-15T12:17:38;52.17;;;21.40;;
15818;SDS011;8010;53.986;12.106;2023-02-15T12:22:40;61.03;;;21.97;;
15818;SDS011;8010;53.986;12.106;2023-02-15T12:25:35;58.67;;;21.13;;
15818;SDS011;8010;53.986;12.106;2023-02-15T12:28:05;47.70;;;19.07;;
15818;SDS011;8010;53.986;12.106;2023-02-15T12:30:52;50.37;;;19.63;;
15818;SDS011;8010;53.986;12.106;2023-02-15T12:36:17;53.20;;;19.57;;
15818;SDS011;8010;53.986;12.106;2023-02-15T12:39:19;49.97;;;19.43;;
15818;SDS011;8010;53.986;12.106;2023-02-15T12:41:36;48.87;;;19.60;;
15818;SDS011;8010;53.986;12.106;2023-02-15T12:44:04;57.07;;;19.83;;
15818;SDS011;8010;53.986;12.106;2023-02-15T12:46:32;47.70;;;19.97;;
15818;SDS011;8010;53.986;12.106;2023-02-15T12:49:05;49.57;;;18.57;;
15818;SDS011;8010;53.986;12.106;2023-02-15T12:54:15;46.97;;;19.93;;
15818;SDS011;8010;53.986;12.106;2023-02-15T12:56:42;54.03;;;19.57;;
15818;SDS011;8010;53.986;12.106;2023-02-15T12:59:12;48.77;;;18.30;;
15818;SDS011;8010;53.986;12.106;2023-02-15T13:01:39;50.47;;;19.97;;
15818;SDS011;8010;53.986;12.106;2023-02-15T13:04:28;53.97;;;19.83;;
15818;SDS011;8010;53.986;12.106;2023-02-15T13:07:01;55.47;;;20.50;;
15818;SDS011;8010;53.986;12.106;2023-02-15T13:11:56;48.33;;;18.67;;
15818;SDS011;8010;53.986;12.106;2023-02-15T13:14:33;46.77;;;18.60;;
15818;SDS011;8010;53.986;12.106;2023-02-15T13:17:01;48.83;;;18.80;;
15818;SDS011;8010;53.986;12.106;2023-02-15T13:19:48;40.53;;;19.20;;
15818;SDS011;8010;53.986;12.106;2023-02-15T13:22:19;51.83;;;20.13;;
15818;SDS011;8010;53.986;12.106;2023-02-15T13:24:53;50.40;;;19.40;;
15818;SDS011;8010;53.986;12.106;2023-02-15T13:27:22;48.87;;;18.87;;
15818;SDS011;8010;53.986;12.106;2023-02-15T13:29:55;48.33;;;19.33;;
15818;SDS011;8010;53.986;12.106;2023-02-15T13:32:28;49.90;;;18.40;;
15818;SDS011;8010;53.986;12.106;2023-02-15T13:34:59;46.30;;;19.77;;
15818;SDS011;8010;53.986;12.106;2023-02-15T13:40:22;48.33;;;19.90;;
15818;SDS011;8010;53.986;12.106;2023-02-15T13:48:34;48.50;;;19.23;;
15818;SDS011;8010;53.986;12.106;2023-02-15T14:04:47;42.37;;;18.67;;
15818;SDS011;8010;53.986;12.106;2023-02-15T14:07:47;43.53;;;18.00;;
15818;SDS011;8010;53.986;12.106;2023-02-15T14:10:23;41.10;;;17.97;;
15818;SDS011;8010;53.986;12.106;2023-02-15T14:21:21;37.60;;;16.87;;
15818;SDS011;8010;53.986;12.106;2023-02-15T14:29:53;34.93;;;15.93;;
15818;SDS011;8010;53.986;12.106;2023-02-15T14:32:41;39.03;;;15.43;;
15818;SDS011;8010;53.986;12.106;2023-02-15T14:35:14;39.50;;;17.13;;
15818;SDS011;8010;53.986;12.106;2023-02-15T14:49:13;38.83;;;16.20;;
15818;SDS011;8010;53.986;12.106;2023-02-15T14:54:08;36.43;;;16.77;;
15818;SDS011;8010;53.986;12.106;2023-02-15T14:56:35;37.23;;;16.10;;
15818;SDS011;8010;53.986;12.106;2023-02-15T14:59:11;35.27;;;15.73;;
15818;SDS011;8010;53.986;12.106;2023-02-15T15:02:20;30.97;;;15.30;;
15818;SDS011;8010;53.986;12.106;2023-02-15T15:05:06;33.17;;;15.37;;
15818;SDS011;8010;53.986;12.106;2023-02-15T15:07:44;36.67;;;16.63;;
15818;SDS011;8010;53.986;12.106;2023-02-15T15:12:50;38.17;;;16.57;;
15818;SDS011;8010;53.986;12.106;2023-02-15T15:34:12;35.77;;;16.43;;
15818;SDS011;8010;53.986;12.106;2023-02-15T15:47:59;41.03;;;16.63;;
15818;SDS011;8010;53.986;12.106;2023-02-15T15:50:51;37.63;;;16.27;;
15818;SDS011;8010;53.986;12.106;2023-02-15T15:53:20;36.97;;;15.37;;
15818;SDS011;8010;53.986;12.106;2023-02-15T15:55:48;38.83;;;16.33;;
15818;SDS011;8010;53.986;12.106;2023-02-15T15:58:19;39.57;;;16.33;;
15818;SDS011;8010;53.986;12.106;2023-02-15T16:00:49;33.67;;;14.47;;
15818;SDS011;8010;53.986;12.106;2023-02-15T16:03:21;43.13;;;17.07;;
15818;SDS011;8010;53.986;12.106;2023-02-15T16:05:48;38.87;;;15.80;;
15818;SDS011;8010;53.986;12.106;2023-02-15T16:08:25;41.63;;;16.97;;
15818;SDS011;8010;53.986;12.106;2023-02-15T16:10:56;41.90;;;16.67;;
15818;SDS011;8010;53.986;12.106;2023-02-15T16:13:23;39.93;;;16.57;;
15818;SDS011;8010;53.986;12.106;2023-02-15T16:15:52;36.80;;;16.03;;
15818;SDS011;8010;53.986;12.106;2023-02-15T16:18:21;40.10;;;16.67;;
15818;SDS011;8010;53.986;12.106;2023-02-15T16:20:51;36.97;;;15.40;;
15818;SDS011;8010;53.986;12.106;2023-02-15T16:28:54;39.87;;;16.23;;
15818;SDS011;8010;53.986;12.106;2023-02-15T16:31:20;39.63;;;17.17;;
15818;SDS011;8010;53.986;12.106;2023-02-15T16:33:47;37.77;;;16.17;;
15818;SDS011;8010;53.986;12.106;2023-02-15T16:36:24;37.73;;;15.67;;
15818;SDS011;8010;53.986;12.106;2023-02-15T16:41:17;35.27;;;15.00;;
15818;SDS011;8010;53.986;12.106;2023-02-15T16:43:52;38.87;;;16.47;;
15818;SDS011;8010;53.986;12.106;2023-02-15T16:46:26;39.83;;;16.63;;
15818;SDS011;8010;53.986;12.106;2023-02-15T16:48:57;38.43;;;15.80;;
15818;SDS011;8010;53.986;12.106;2023-02-15T16:51:27;37.63;;;16.03;;
15818;SDS011;8010;53.986;12.106;2023-02-15T16:53:55;36.63;;;16.57;;
15818;SDS011;8010;53.986;12.106;2023-02-15T16:56:29;35.17;;;15.67;;
15818;SDS011;8010;53.986;12.106;2023-02-15T16:58:56;34.80;;;14.40;;
15818;SDS011;8010;53.986;12.106;2023-02-15T17:01:23;34.37;;;15.67;;
15818;SDS011;8010;53.986;12.106;2023-02-15T17:04:10;38.43;;;15.50;;
15818;SDS011;8010;53.986;12.106;2023-02-15T17:07:00;29.30;;;14.50;;
15818;SDS011;8010;53.986;12.106;2023-02-15T17:09:40;39.90;;;15.20;;
15818;SDS011;8010;53.986;12.106;2023-02-15T17:20:34;39.97;;;16.43;;
15818;SDS011;8010;53.986;12.106;2023-02-15T17:23:06;34.13;;;16.20;;
15818;SDS011;8010;53.986;12.106;2023-02-15T17:25:42;32.90;;;14.60;;
15818;SDS011;8010;53.986;12.106;2023-02-15T17:28:18;38.33;;;13.93;;
15818;SDS011;8010;53.986;12.106;2023-02-15T17:30:46;30.83;;;15.73;;
15818;SDS011;8010;53.986;12.106;2023-02-15T17:33:26;33.03;;;13.27;;
15818;SDS011;8010;53.986;12.106;2023-02-15T17:41:21;30.33;;;13.20;;
15818;SDS011;8010;53.986;12.106;2023-02-15T17:43:48;32.67;;;13.37;;
15818;SDS011;8010;53.986;12.106;2023-02-15T17:46:13;34.13;;;12.83;;
15818;SDS011;8010;53.986;12.106;2023-02-15T17:48:41;33.57;;;14.93;;
15818;SDS011;8010;53.986;12.106;2023-02-15T17:51:09;37.03;;;13.63;;
15818;SDS011;8010;53.986;12.106;2023-02-15T17:53:37;37.70;;;13.67;;
15818;SDS011;8010;53.986;12.106;2023-02-15T17:56:03;66.50;;;15.10;;
15818;SDS011;8010;53.986;12.106;2023-02-15T17:58:34;31.90;;;13.60;;
15818;SDS011;8010;53.986;12.106;2023-02-15T18:01:00;32.03;;;14.67;;
15818;SDS011;8010;53.986;12.106;2023-02-15T18:03:51;32.33;;;14.27;;
15818;SDS011;8010;53.986;12.106;2023-02-15T18:06:41;38.30;;;15.40;;
15818;SDS011;8010;53.986;12.106;2023-02-15T18:09:26;31.27;;;13.57;;